createdAt,value
2022-10-30T00:02:47.987Z,13.93
2022-10-30T00:05:53.307Z,17.20
2022-10-30T00:08:57.517Z,14.60
2022-10-30T00:12:02.115Z,19.87
2022-10-30T00:15:09.116Z,21.20
2022-10-30T00:18:13.483Z,16.30
2022-10-30T00:21:18.662Z,15.00
2022-10-30T00:24:22.664Z,20.53
2022-10-30T00:27:26.816Z,12.03
2022-10-30T00:30:32.415Z,15.00
2022-10-30T00:33:36.634Z,16.97
2022-10-30T00:36:41.497Z,13.90
2022-10-30T00:39:45.593Z,13.63
2022-10-30T00:42:49.712Z,14.13
2022-10-30T00:45:55.578Z,20.70
2022-10-30T00:49:04.878Z,16.93
2022-10-30T00:52:12.093Z,13.87
2022-10-30T00:55:21.404Z,12.03
2022-10-30T00:58:31.294Z,16.20
2022-10-30T01:01:40.601Z,17.33
2022-10-30T01:04:46.533Z,11.03
2022-10-30T01:07:50.687Z,19.07
2022-10-30T01:10:54.882Z,19.17
2022-10-30T01:14:02.176Z,18.03
2022-10-30T01:17:31.851Z,11.77
2022-10-30T01:20:55.722Z,13.77
2022-10-30T01:24:20.306Z,10.97
2022-10-30T01:27:37.700Z,10.87
2022-10-30T01:30:59.256Z,9.60
2022-10-30T01:34:18.912Z,11.07
2022-10-30T01:37:30.393Z,12.43
2022-10-30T01:40:35.280Z,11.33
2022-10-30T01:43:41.068Z,10.20
2022-10-30T01:47:01.234Z,20.47
2022-10-30T01:50:23.382Z,10.40
2022-10-30T01:53:42.682Z,8.33
2022-10-30T01:56:56.811Z,9.33
2022-10-30T02:00:06.220Z,8.83
2022-10-30T02:03:17.365Z,9.17
2022-10-30T02:06:24.141Z,20.33
2022-10-30T02:09:28.533Z,29.23
2022-10-30T02:12:33.586Z,27.53
2022-10-30T02:15:38.595Z,21.63
2022-10-30T02:18:43.105Z,19.97
2022-10-30T02:21:48.903Z,25.27
2022-10-30T02:24:53.285Z,14.53
2022-10-30T02:28:01.217Z,14.23
2022-10-30T02:31:08.268Z,11.70
2022-10-30T02:34:12.552Z,13.73
2022-10-30T02:37:18.287Z,14.30
2022-10-30T02:40:22.434Z,9.73
2022-10-30T02:43:26.724Z,12.33
2022-10-30T02:46:30.894Z,10.70
2022-10-30T02:49:35.086Z,10.63
2022-10-30T02:52:40.520Z,12.50
2022-10-30T02:55:45.966Z,11.40
2022-10-30T02:58:50.121Z,11.43
2022-10-30T03:01:55.635Z,13.93
2022-10-30T03:04:59.756Z,14.13
2022-10-30T03:08:05.663Z,10.97
2022-10-30T03:11:11.607Z,13.23
2022-10-30T03:14:15.794Z,11.93
2022-10-30T03:17:20.534Z,11.80
2022-10-30T03:20:26.200Z,12.30
2022-10-30T03:23:32.087Z,10.87
2022-10-30T03:26:38.094Z,8.17
2022-10-30T03:29:44.007Z,10.73
2022-10-30T03:32:49.623Z,11.60
2022-10-30T03:35:54.186Z,14.23
2022-10-30T03:38:59.736Z,13.83
2022-10-30T03:42:04.789Z,12.07
2022-10-30T03:45:10.196Z,12.90
2022-10-30T03:48:14.448Z,12.27
2022-10-30T03:51:19.327Z,14.60
2022-10-30T03:54:25.720Z,14.00
2022-10-30T03:57:30.071Z,14.90
2022-10-30T04:00:45.594Z,13.33
2022-10-30T04:03:50.020Z,13.57
2022-10-30T04:06:54.824Z,13.07
2022-10-30T04:10:01.412Z,11.50
2022-10-30T04:13:08.952Z,9.63
2022-10-30T04:16:17.468Z,10.40
2022-10-30T04:19:22.843Z,11.23
2022-10-30T04:22:27.319Z,16.23
2022-10-30T04:25:35.521Z,10.20
2022-10-30T04:28:39.673Z,10.10
2022-10-30T04:31:44.943Z,11.80
2022-10-30T04:34:51.173Z,10.07
2022-10-30T04:37:55.873Z,10.47
2022-10-30T04:41:01.468Z,8.07
2022-10-30T04:44:21.033Z,11.27
2022-10-30T04:47:25.388Z,10.37
2022-10-30T04:50:29.912Z,9.13
2022-10-30T04:53:34.367Z,11.03
2022-10-30T04:56:44.671Z,8.83
2022-10-30T04:59:49.234Z,10.40
2022-10-30T05:02:53.524Z,9.17
2022-10-30T05:06:00.724Z,10.87
2022-10-30T05:09:05.694Z,7.83
2022-10-30T05:12:19.738Z,14.47
2022-10-30T05:15:30.692Z,14.67
2022-10-30T05:18:35.371Z,12.47
2022-10-30T05:21:39.720Z,11.77
2022-10-30T05:24:43.791Z,8.73
2022-10-30T05:27:49.692Z,10.70
2022-10-30T05:30:56.174Z,10.03
2022-10-30T05:34:26.949Z,8.83
2022-10-30T05:37:35.105Z,10.73
2022-10-30T05:40:42.024Z,9.87
2022-10-30T05:43:48.431Z,9.67
2022-10-30T05:46:52.842Z,13.13
2022-10-30T05:50:11.868Z,9.20
2022-10-30T05:53:23.674Z,7.20
2022-10-30T05:56:29.332Z,10.33
2022-10-30T05:59:36.403Z,10.53
2022-10-30T06:02:40.883Z,10.83
2022-10-30T06:05:47.640Z,12.37
2022-10-30T06:08:52.639Z,12.07
2022-10-30T06:12:19.240Z,12.30
2022-10-30T06:15:45.212Z,11.97
2022-10-30T06:18:49.533Z,14.43
2022-10-30T06:21:55.171Z,13.97
2022-10-30T06:25:10.910Z,9.87
2022-10-30T06:28:38.440Z,12.73
2022-10-30T06:31:44.274Z,13.73
2022-10-30T06:34:49.669Z,14.27
2022-10-30T06:37:56.589Z,16.50
2022-10-30T06:41:01.784Z,18.27
2022-10-30T06:44:26.263Z,9.70
2022-10-30T06:47:36.712Z,12.17
2022-10-30T06:50:40.968Z,12.93
2022-10-30T06:53:45.500Z,10.87
2022-10-30T06:57:08.163Z,11.50
2022-10-30T07:00:30.575Z,8.97
2022-10-30T07:03:54.613Z,7.77
2022-10-30T07:07:00.269Z,8.63
2022-10-30T07:10:05.464Z,11.90
2022-10-30T07:13:29.962Z,8.43
2022-10-30T07:16:42.169Z,12.97
2022-10-30T07:19:51.173Z,10.37
2022-10-30T07:22:55.749Z,12.90
2022-10-30T07:26:04.180Z,15.67
2022-10-30T07:29:14.880Z,10.57
2022-10-30T07:32:20.850Z,13.53
2022-10-30T07:35:44.901Z,15.90
2022-10-30T07:39:07.308Z,10.83
2022-10-30T07:42:34.897Z,9.03
2022-10-30T07:45:58.020Z,12.50
2022-10-30T07:49:29.610Z,8.43
2022-10-30T07:52:43.908Z,15.90
2022-10-30T07:55:48.240Z,12.47
2022-10-30T07:59:24.879Z,8.27
2022-10-30T08:02:36.448Z,10.97
2022-10-30T08:05:56.642Z,11.80
2022-10-30T08:09:12.483Z,8.53
2022-10-30T08:12:17.621Z,8.37
2022-10-30T08:15:22.540Z,7.43
2022-10-30T08:18:27.390Z,11.60
2022-10-30T08:21:31.823Z,17.00
2022-10-30T08:24:42.337Z,8.85
2022-10-30T08:27:57.130Z,11.43
2022-10-30T08:31:04.333Z,10.10
2022-10-30T08:34:28.400Z,10.68
2022-10-30T08:37:33.572Z,8.30
2022-10-30T08:40:39.178Z,10.82
2022-10-30T08:43:44.594Z,4.88
2022-10-30T08:46:48.867Z,7.75
2022-10-30T08:49:55.469Z,6.65
2022-10-30T08:53:04.611Z,9.45
2022-10-30T08:56:12.125Z,5.25
2022-10-30T08:59:36.539Z,7.50
2022-10-30T09:02:41.609Z,11.52
2022-10-30T09:06:04.018Z,9.00
2022-10-30T09:09:26.509Z,5.07
2022-10-30T09:12:35.837Z,4.50
2022-10-30T09:15:39.945Z,8.55
2022-10-30T09:18:44.345Z,4.65
2022-10-30T09:21:49.196Z,6.25
2022-10-30T09:24:53.899Z,7.63
2022-10-30T09:28:19.545Z,5.30
2022-10-30T09:31:55.840Z,5.22
2022-10-30T09:35:02.380Z,3.70
2022-10-30T09:38:17.646Z,5.13
2022-10-30T09:41:41.058Z,5.43
2022-10-30T09:45:23.344Z,6.55
2022-10-30T09:48:37.920Z,5.63
2022-10-30T09:52:23.700Z,6.15
2022-10-30T09:55:36.395Z,8.35
2022-10-30T09:58:48.826Z,6.15
2022-10-30T10:02:03.003Z,8.55
2022-10-30T10:05:17.277Z,7.22
2022-10-30T10:08:34.137Z,6.40
2022-10-30T10:12:00.698Z,5.70
2022-10-30T10:15:13.245Z,8.70
2022-10-30T10:18:24.852Z,6.20
2022-10-30T10:21:31.008Z,6.65
2022-10-30T10:24:38.598Z,8.18
2022-10-30T10:27:55.569Z,11.35
2022-10-30T10:31:12.620Z,8.68
2022-10-30T10:34:37.638Z,11.50
2022-10-30T10:37:50.814Z,7.10
2022-10-30T10:41:01.308Z,8.43
2022-10-30T10:44:27.318Z,12.50
2022-10-30T10:47:51.038Z,16.95
2022-10-30T10:51:00.432Z,12.13
2022-10-30T10:54:12.169Z,10.90
2022-10-30T10:57:26.067Z,10.23
2022-10-30T11:00:32.258Z,10.90
2022-10-30T11:03:47.485Z,11.13
2022-10-30T11:06:56.028Z,6.07
2022-10-30T11:10:00.945Z,11.38
2022-10-30T11:13:05.195Z,7.20
2022-10-30T11:16:20.345Z,7.65
2022-10-30T11:19:25.287Z,4.22
2022-10-30T11:22:36.176Z,5.28
2022-10-30T11:25:40.855Z,3.90
2022-10-30T11:28:50.514Z,12.73
2022-10-30T11:32:03.478Z,5.70
2022-10-30T11:35:14.925Z,2.60
2022-10-30T11:38:22.539Z,6.18
2022-10-30T11:41:28.008Z,3.63
2022-10-30T11:44:36.663Z,4.35
2022-10-30T11:47:41.182Z,3.55
2022-10-30T11:50:51.330Z,4.63
2022-10-30T11:53:57.109Z,5.03
2022-10-30T11:57:01.139Z,6.43
2022-10-30T12:00:09.975Z,3.20
2022-10-30T12:03:31.148Z,5.32
2022-10-30T12:06:35.480Z,6.35
2022-10-30T12:09:50.134Z,5.57
2022-10-30T12:12:54.465Z,6.03
2022-10-30T12:16:14.679Z,4.60
2022-10-30T12:19:21.435Z,3.35
2022-10-30T12:22:29.063Z,4.50
2022-10-30T12:25:39.895Z,4.47
2022-10-30T12:28:55.280Z,5.10
2022-10-30T12:32:04.008Z,3.33
2022-10-30T12:35:18.805Z,7.30
2022-10-30T12:38:28.629Z,3.90
2022-10-30T12:41:41.378Z,5.90
2022-10-30T12:44:49.009Z,3.50
2022-10-30T12:47:59.134Z,6.53
2022-10-30T12:51:19.758Z,4.93
2022-10-30T12:54:35.670Z,3.85
2022-10-30T12:57:48.346Z,7.90
2022-10-30T13:00:59.238Z,5.30
2022-10-30T13:04:11.221Z,8.63
2022-10-30T13:07:21.807Z,2.80
2022-10-30T13:10:31.318Z,4.38
2022-10-30T13:13:39.895Z,3.95
2022-10-30T13:16:44.307Z,6.60
2022-10-30T13:19:49.116Z,5.72
2022-10-30T13:22:59.197Z,5.18
2022-10-30T13:26:13.597Z,4.15
2022-10-30T13:29:25.821Z,5.07
2022-10-30T13:32:40.809Z,7.65
2022-10-30T13:35:50.099Z,4.07
2022-10-30T13:39:01.595Z,8.30
2022-10-30T13:42:22.406Z,7.00
2022-10-30T13:45:56.919Z,4.68
2022-10-30T13:49:15.611Z,4.75
2022-10-30T13:52:22.811Z,3.63
2022-10-30T13:55:29.919Z,6.10
2022-10-30T13:58:43.404Z,5.57
2022-10-30T14:02:01.564Z,7.80
2022-10-30T14:05:16.968Z,4.95
2022-10-30T14:08:32.396Z,6.78
2022-10-30T14:11:36.585Z,7.07
2022-10-30T14:14:49.477Z,6.20
2022-10-30T14:18:33.470Z,8.25
2022-10-30T14:21:46.053Z,9.35
2022-10-30T14:24:50.277Z,7.75
2022-10-30T14:27:58.380Z,7.30
2022-10-30T14:31:04.699Z,4.93
2022-10-30T14:34:43.056Z,7.13
2022-10-30T14:37:58.777Z,10.48
2022-10-30T14:41:36.280Z,8.18
2022-10-30T14:45:01.634Z,8.85
2022-10-30T14:48:14.435Z,11.10
2022-10-30T14:51:24.946Z,6.63
2022-10-30T14:54:35.245Z,5.47
2022-10-30T14:57:48.675Z,8.63
2022-10-30T15:00:57.457Z,9.57
2022-10-30T15:04:18.975Z,12.30
2022-10-30T15:07:34.527Z,11.88
2022-10-30T15:10:43.752Z,10.00
2022-10-30T15:13:51.687Z,11.45
2022-10-30T15:16:56.135Z,15.73
2022-10-30T15:20:02.916Z,19.48
2022-10-30T15:23:13.927Z,11.15
2022-10-30T15:26:22.041Z,12.93
2022-10-30T15:29:30.681Z,18.15
2022-10-30T15:32:34.901Z,21.15
2022-10-30T15:35:39.409Z,13.65
2022-10-30T15:38:45.051Z,20.00
2022-10-30T15:41:51.958Z,18.77
2022-10-30T15:44:56.159Z,22.42
2022-10-30T15:48:04.472Z,29.13
2022-10-30T15:51:13.925Z,19.83
2022-10-30T15:54:21.635Z,13.63
2022-10-30T15:57:57.387Z,17.27
2022-10-30T16:00:59.417Z,22.98
2022-10-30T16:04:03.919Z,18.52
2022-10-30T16:07:19.758Z,23.10
2022-10-30T16:10:28.077Z,24.40
2022-10-30T16:13:32.956Z,21.48
2022-10-30T16:16:37.128Z,28.98
2022-10-30T16:19:47.176Z,25.05
2022-10-30T16:22:51.506Z,28.23
2022-10-30T16:25:59.517Z,28.13
2022-10-30T16:29:18.694Z,39.80
2022-10-30T16:32:27.323Z,36.28
2022-10-30T16:35:31.810Z,33.35
2022-10-30T16:38:38.551Z,33.53
2022-10-30T16:41:44.846Z,31.88
2022-10-30T16:44:49.555Z,35.10
2022-10-30T16:47:59.041Z,33.05
2022-10-30T16:51:06.128Z,61.17
2022-10-30T16:54:22.247Z,194.98
2022-10-30T16:57:30.650Z,94.60
2022-10-30T17:00:36.821Z,72.72
2022-10-30T17:03:44.190Z,32.58
2022-10-30T17:06:48.409Z,21.95
2022-10-30T17:09:57.211Z,30.13
2022-10-30T17:13:31.882Z,27.10
2022-10-30T17:16:39.315Z,38.50
2022-10-30T17:19:51.459Z,34.00
2022-10-30T17:23:09.240Z,31.40
2022-10-30T17:26:15.038Z,30.67
2022-10-30T17:29:47.229Z,30.70
2022-10-30T17:32:56.241Z,33.10
2022-10-30T17:36:00.899Z,30.27
2022-10-30T17:39:06.371Z,25.83
2022-10-30T17:42:13.330Z,49.47
2022-10-30T17:45:19.751Z,63.73
2022-10-30T17:48:27.748Z,35.83
2022-10-30T17:51:32.894Z,24.87
2022-10-30T17:54:38.446Z,19.13
2022-10-30T17:57:43.239Z,18.87
2022-10-30T18:00:49.704Z,20.53
2022-10-30T18:03:56.960Z,20.53
2022-10-30T18:07:01.676Z,20.67
2022-10-30T18:10:09.728Z,13.40
2022-10-30T18:13:15.648Z,19.23
2022-10-30T18:16:22.466Z,22.90
2022-10-30T18:19:26.955Z,20.40
2022-10-30T18:22:31.186Z,19.47
2022-10-30T18:25:38.702Z,27.90
2022-10-30T18:28:43.799Z,28.97
2022-10-30T18:31:49.540Z,26.20
2022-10-30T18:34:53.749Z,25.20
2022-10-30T18:37:58.446Z,26.47
2022-10-30T18:41:02.716Z,28.63
2022-10-30T18:44:11.846Z,25.20
2022-10-30T18:47:18.656Z,25.60
2022-10-30T18:50:25.755Z,37.87
2022-10-30T18:53:34.977Z,25.33
2022-10-30T18:56:47.275Z,27.63
2022-10-30T18:59:51.900Z,28.47
2022-10-30T19:02:58.679Z,30.90
2022-10-30T19:06:03.491Z,25.53
2022-10-30T19:09:07.849Z,22.40
2022-10-30T19:12:12.659Z,22.27
2022-10-30T19:15:19.498Z,25.07
2022-10-30T19:18:26.319Z,22.73
2022-10-30T19:21:34.877Z,26.23
2022-10-30T19:24:39.179Z,22.27
2022-10-30T19:27:43.480Z,22.40
2022-10-30T19:30:50.642Z,28.23
2022-10-30T19:33:57.829Z,26.13
2022-10-30T19:37:01.945Z,19.83
2022-10-30T19:40:21.185Z,18.90
2022-10-30T19:43:25.459Z,19.33
2022-10-30T19:46:29.769Z,22.50
2022-10-30T19:49:35.419Z,25.67
2022-10-30T19:52:39.586Z,23.70
2022-10-30T19:55:45.008Z,18.53
2022-10-30T19:58:50.462Z,24.50
2022-10-30T20:01:54.850Z,18.83
2022-10-30T20:05:03.479Z,23.00
2022-10-30T20:08:12.741Z,17.37
2022-10-30T20:11:16.870Z,21.20
2022-10-30T20:14:23.797Z,20.43
2022-10-30T20:17:28.096Z,22.03
2022-10-30T20:20:37.205Z,18.40
2022-10-30T20:23:41.757Z,18.70
2022-10-30T20:26:46.308Z,20.10
2022-10-30T20:29:50.568Z,21.17
2022-10-30T20:32:55.126Z,22.13
2022-10-30T20:36:00.819Z,22.77
2022-10-30T20:39:05.203Z,22.57
2022-10-30T20:42:14.296Z,14.90
2022-10-30T20:45:21.250Z,20.60
2022-10-30T20:48:25.548Z,22.07
2022-10-30T20:51:31.939Z,24.90
2022-10-30T20:54:36.121Z,17.87
2022-10-30T20:57:40.911Z,17.53
2022-10-30T21:00:45.316Z,23.83
2022-10-30T21:03:50.739Z,22.43
2022-10-30T21:06:59.301Z,21.03
2022-10-30T21:10:03.592Z,23.20
2022-10-30T21:13:09.815Z,17.33
2022-10-30T21:16:14.637Z,21.20
2022-10-30T21:19:19.043Z,22.00
2022-10-30T21:22:24.772Z,22.67
2022-10-30T21:25:29.129Z,26.00
2022-10-30T21:28:33.536Z,21.43
2022-10-30T21:31:37.889Z,20.53
2022-10-30T21:34:42.200Z,17.53
2022-10-30T21:37:48.029Z,24.47
2022-10-30T21:40:57.202Z,20.33
2022-10-30T21:44:02.491Z,15.17
2022-10-30T21:47:06.623Z,13.93
2022-10-30T21:50:12.678Z,15.37
2022-10-30T21:53:18.688Z,15.77
2022-10-30T21:56:24.495Z,15.80
2022-10-30T21:59:28.739Z,13.43
2022-10-30T22:02:33.111Z,13.00
2022-10-30T22:05:37.349Z,12.47
2022-10-30T22:08:43.117Z,11.57
2022-10-30T22:11:47.272Z,11.23
2022-10-30T22:14:51.560Z,10.10
2022-10-30T22:17:55.718Z,13.27
2022-10-30T22:21:03.663Z,9.17
2022-10-30T22:24:10.003Z,14.60
2022-10-30T22:27:14.389Z,10.07
2022-10-30T22:30:18.729Z,10.87
2022-10-30T22:33:23.498Z,10.27
2022-10-30T22:36:30.161Z,10.00
2022-10-30T22:39:35.677Z,8.23
2022-10-30T22:42:39.906Z,9.77
2022-10-30T22:45:43.921Z,9.30
2022-10-30T22:48:48.293Z,6.53
2022-10-30T22:51:52.308Z,8.17
2022-10-30T22:54:57.907Z,8.67
2022-10-30T22:58:02.427Z,7.97
2022-10-30T23:01:12.194Z,5.97
2022-10-30T23:04:16.786Z,9.67
2022-10-30T23:07:30.164Z,11.90
2022-10-30T23:10:48.567Z,9.83
2022-10-30T23:14:03.743Z,7.83
2022-10-30T23:17:18.471Z,7.10
2022-10-30T23:20:29.314Z,7.07
2022-10-30T23:23:44.026Z,8.37
2022-10-30T23:27:01.864Z,6.07
2022-10-30T23:30:17.885Z,10.57
2022-10-30T23:33:32.781Z,6.33
2022-10-30T23:36:46.114Z,8.27
2022-10-30T23:39:53.726Z,7.37
2022-10-30T23:43:10.420Z,7.00
2022-10-30T23:46:23.567Z,7.53
2022-10-30T23:49:34.539Z,6.97
2022-10-30T23:52:44.544Z,7.10
2022-10-30T23:56:00.032Z,8.83
2022-10-30T23:59:17.414Z,7.43
